sensor_id;sensor_type;location;lat;lon;timestamp;pressure;altitude;pressure_sealevel;temperature;humidity
62948;BME280;51940;52.126;-0.994;2023-03-03T00:00:32;101781.23;;;3.55;100.00
62948;BME280;51940;52.126;-0.994;2023-03-03T00:02:58;101783.16;;;3.54;100.00
62948;BME280;51940;52.126;-0.994;2023-03-03T00:05:27;101782.61;;;3.54;100.00
62948;BME280;51940;52.126;-0.994;2023-03-03T00:07:52;101783.85;;;3.53;100.00
62948;BME280;51940;52.126;-0.994;2023-03-03T00:10:17;101788.27;;;3.54;100.00
62948;BME280;51940;52.126;-0.994;2023-03-03T00:12:47;101787.37;;;3.53;100.00
62948;BME280;51940;52.126;-0.994;2023-03-03T00:15:13;101788.60;;;3.53;100.00
62948;BME280;51940;52.126;-0.994;2023-03-03T00:17:39;101785.23;;;3.53;100.00
62948;BME280;51940;52.126;-0.994;2023-03-03T00:20:21;101783.80;;;3.51;100.00
62948;BME280;51940;52.126;-0.994;2023-03-03T00:22:49;101787.68;;;3.51;100.00
62948;BME280;51940;52.126;-0.994;2023-03-03T00:25:31;101789.08;;;3.51;100.00
62948;BME280;51940;52.126;-0.994;2023-03-03T00:28:15;101784.07;;;3.49;100.00
62948;BME280;51940;52.126;-0.994;2023-03-03T00:30:44;101787.41;;;3.49;100.00
62948;BME280;51940;52.126;-0.994;2023-03-03T00:33:13;101784.57;;;3.48;100.00
62948;BME280;51940;52.126;-0.994;2023-03-03T00:35:43;101787.22;;;3.48;100.00
62948;BME280;51940;52.126;-0.994;2023-03-03T00:38:10;101788.09;;;3.48;100.00
62948;BME280;51940;52.126;-0.994;2023-03-03T00:40:37;101783.52;;;3.48;100.00
62948;BME280;51940;52.126;-0.994;2023-03-03T00:43:22;101784.92;;;3.48;100.00
62948;BME280;51940;52.126;-0.994;2023-03-03T00:45:49;101786.51;;;3.48;100.00
62948;BME280;51940;52.126;-0.994;2023-03-03T00:50:51;101781.93;;;3.48;100.00
62948;BME280;51940;52.126;-0.994;2023-03-03T00:53:17;101780.67;;;3.48;100.00
62948;BME280;51940;52.126;-0.994;2023-03-03T00:55:44;101782.61;;;3.47;100.00
62948;BME280;51940;52.126;-0.994;2023-03-03T00:58:09;101781.89;;;3.47;100.00
62948;BME280;51940;52.126;-0.994;2023-03-03T01:00:35;101777.46;;;3.46;100.00
62948;BME280;51940;52.126;-0.994;2023-03-03T01:03:02;101779.55;;;3.45;100.00
62948;BME280;51940;52.126;-0.994;2023-03-03T01:05:29;101777.23;;;3.44;100.00
62948;BME280;51940;52.126;-0.994;2023-03-03T01:07:55;101782.15;;;3.43;100.00
62948;BME280;51940;52.126;-0.994;2023-03-03T01:10:20;101782.14;;;3.43;100.00
62948;BME280;51940;52.126;-0.994;2023-03-03T01:12:45;101784.77;;;3.42;100.00
62948;BME280;51940;52.126;-0.994;2023-03-03T01:15:11;101778.92;;;3.41;100.00
62948;BME280;51940;52.126;-0.994;2023-03-03T01:17:37;101779.79;;;3.41;100.00
62948;BME280;51940;52.126;-0.994;2023-03-03T01:20:04;101782.64;;;3.42;100.00
62948;BME280;51940;52.126;-0.994;2023-03-03T01:22:30;101782.09;;;3.41;100.00
62948;BME280;51940;52.126;-0.994;2023-03-03T01:24:55;101779.83;;;3.42;100.00
62948;BME280;51940;52.126;-0.994;2023-03-03T01:27:20;101782.14;;;3.42;100.00
62948;BME280;51940;52.126;-0.994;2023-03-03T01:29:46;101783.02;;;3.43;100.00
62948;BME280;51940;52.126;-0.994;2023-03-03T01:32:11;101780.93;;;3.43;100.00
62948;BME280;51940;52.126;-0.994;2023-03-03T01:34:36;101780.95;;;3.44;100.00
62948;BME280;51940;52.126;-0.994;2023-03-03T01:37:02;101785.02;;;3.45;100.00
62948;BME280;51940;52.126;-0.994;2023-03-03T01:39:27;101786.78;;;3.45;100.00
62948;BME280;51940;52.126;-0.994;2023-03-03T01:41:52;101786.77;;;3.44;100.00
62948;BME280;51940;52.126;-0.994;2023-03-03T01:44:18;101785.36;;;3.44;100.00
62948;BME280;51940;52.126;-0.994;2023-03-03T01:49:39;101789.16;;;3.42;100.00
62948;BME280;51940;52.126;-0.994;2023-03-03T01:52:07;101789.48;;;3.41;100.00
62948;BME280;51940;52.126;-0.994;2023-03-03T01:54:36;101788.05;;;3.40;100.00
62948;BME280;51940;52.126;-0.994;2023-03-03T01:57:04;101799.86;;;3.39;100.00
62948;BME280;51940;52.126;-0.994;2023-03-03T01:59:31;101802.27;;;3.37;100.00
62948;BME280;51940;52.126;-0.994;2023-03-03T02:01:58;101800.64;;;3.36;100.00
62948;BME280;51940;52.126;-0.994;2023-03-03T02:04:23;101802.55;;;3.34;100.00
62948;BME280;51940;52.126;-0.994;2023-03-03T02:06:51;101800.58;;;3.33;100.00
62948;BME280;51940;52.126;-0.994;2023-03-03T02:12:04;101806.52;;;3.32;100.00
62948;BME280;51940;52.126;-0.994;2023-03-03T02:14:32;101808.63;;;3.32;100.00
62948;BME280;51940;52.126;-0.994;2023-03-03T02:16:58;101811.98;;;3.31;100.00
62948;BME280;51940;52.126;-0.994;2023-03-03T02:22:07;101809.45;;;3.29;100.00
62948;BME280;51940;52.126;-0.994;2023-03-03T02:24:34;101808.53;;;3.28;100.00
62948;BME280;51940;52.126;-0.994;2023-03-03T02:27:01;101809.23;;;3.28;100.00
62948;BME280;51940;52.126;-0.994;2023-03-03T02:29:27;101809.94;;;3.27;100.00
62948;BME280;51940;52.126;-0.994;2023-03-03T02:31:52;101810.13;;;3.28;100.00
62948;BME280;51940;52.126;-0.994;2023-03-03T02:34:17;101811.17;;;3.27;100.00
62948;BME280;51940;52.126;-0.994;2023-03-03T02:36:43;101814.52;;;3.27;100.00
62948;BME280;51940;52.126;-0.994;2023-03-03T02:39:22;101811.69;;;3.27;100.00
62948;BME280;51940;52.126;-0.994;2023-03-03T02:44:14;101809.70;;;3.25;100.00
62948;BME280;51940;52.126;-0.994;2023-03-03T02:46:41;101809.35;;;3.25;100.00
62948;BME280;51940;52.126;-0.994;2023-03-03T02:49:07;101809.33;;;3.25;100.00
62948;BME280;51940;52.126;-0.994;2023-03-03T02:51:33;101814.79;;;3.25;100.00
62948;BME280;51940;52.126;-0.994;2023-03-03T02:53:59;101813.70;;;3.24;100.00
62948;BME280;51940;52.126;-0.994;2023-03-03T02:56:24;101815.48;;;3.24;100.00
62948;BME280;51940;52.126;-0.994;2023-03-03T02:58:50;101814.59;;;3.24;100.00
62948;BME280;51940;52.126;-0.994;2023-03-03T03:01:15;101814.21;;;3.23;100.00
62948;BME280;51940;52.126;-0.994;2023-03-03T03:03:40;101813.14;;;3.23;100.00
62948;BME280;51940;52.126;-0.994;2023-03-03T03:06:06;101809.95;;;3.22;100.00
62948;BME280;51940;52.126;-0.994;2023-03-03T03:08:31;101810.14;;;3.23;100.00
62948;BME280;51940;52.126;-0.994;2023-03-03T03:10:57;101811.38;;;3.23;100.00
62948;BME280;51940;52.126;-0.994;2023-03-03T03:13:23;101810.64;;;3.22;100.00
62948;BME280;51940;52.126;-0.994;2023-03-03T03:15:48;101812.04;;;3.21;100.00
62948;BME280;51940;52.126;-0.994;2023-03-03T03:18:14;101809.55;;;3.20;100.00
62948;BME280;51940;52.126;-0.994;2023-03-03T03:20:39;101807.77;;;3.20;100.00
62948;BME280;51940;52.126;-0.994;2023-03-03T03:23:06;101809.89;;;3.20;100.00
62948;BME280;51940;52.126;-0.994;2023-03-03T03:25:31;101807.92;;;3.19;100.00
62948;BME280;51940;52.126;-0.994;2023-03-03T03:27:56;101805.28;;;3.19;100.00
62948;BME280;51940;52.126;-0.994;2023-03-03T03:30:22;101808.27;;;3.18;100.00
62948;BME280;51940;52.126;-0.994;2023-03-03T03:32:47;101805.27;;;3.18;100.00
62948;BME280;51940;52.126;-0.994;2023-03-03T03:35:12;101803.31;;;3.18;100.00
62948;BME280;51940;52.126;-0.994;2023-03-03T03:37:38;101807.71;;;3.17;100.00
62948;BME280;51940;52.126;-0.994;2023-03-03T03:40:03;101804.88;;;3.17;100.00
62948;BME280;51940;52.126;-0.994;2023-03-03T03:42:28;101810.14;;;3.16;100.00
62948;BME280;51940;52.126;-0.994;2023-03-03T03:44:54;101807.81;;;3.16;100.00
62948;BME280;51940;52.126;-0.994;2023-03-03T03:47:19;101807.80;;;3.15;100.00
62948;BME280;51940;52.126;-0.994;2023-03-03T03:49:44;101806.91;;;3.15;100.00
62948;BME280;51940;52.126;-0.994;2023-03-03T03:52:09;101804.11;;;3.15;100.00
62948;BME280;51940;52.126;-0.994;2023-03-03T03:54:35;101806.72;;;3.14;100.00
62948;BME280;51940;52.126;-0.994;2023-03-03T03:57:00;101804.06;;;3.14;100.00
62948;BME280;51940;52.126;-0.994;2023-03-03T03:59:25;101805.48;;;3.14;100.00
62948;BME280;51940;52.126;-0.994;2023-03-03T04:01:50;101803.55;;;3.14;100.00
62948;BME280;51940;52.126;-0.994;2023-03-03T04:04:16;101803.70;;;3.13;100.00
62948;BME280;51940;52.126;-0.994;2023-03-03T04:06:41;101804.23;;;3.14;100.00
62948;BME280;51940;52.126;-0.994;2023-03-03T04:09:07;101807.23;;;3.13;100.00
62948;BME280;51940;52.126;-0.994;2023-03-03T04:11:32;101805.50;;;3.15;100.00
62948;BME280;51940;52.126;-0.994;2023-03-03T04:13:57;101804.42;;;3.14;100.00
62948;BME280;51940;52.126;-0.994;2023-03-03T04:16:22;101806.90;;;3.14;100.00
62948;BME280;51940;52.126;-0.994;2023-03-03T04:18:48;101803.70;;;3.13;100.00
62948;BME280;51940;52.126;-0.994;2023-03-03T04:21:13;101801.92;;;3.13;100.00
62948;BME280;51940;52.126;-0.994;2023-03-03T04:23:39;101797.67;;;3.12;100.00
62948;BME280;51940;52.126;-0.994;2023-03-03T04:26:04;101804.20;;;3.12;100.00
62948;BME280;51940;52.126;-0.994;2023-03-03T04:28:30;101804.02;;;3.12;100.00
62948;BME280;51940;52.126;-0.994;2023-03-03T04:30:55;101801.73;;;3.12;100.00
62948;BME280;51940;52.126;-0.994;2023-03-03T04:33:20;101803.69;;;3.13;100.00
62948;BME280;51940;52.126;-0.994;2023-03-03T04:35:45;101804.09;;;3.15;100.00
62948;BME280;51940;52.126;-0.994;2023-03-03T04:38:11;101806.94;;;3.16;100.00
62948;BME280;51940;52.126;-0.994;2023-03-03T04:40:36;101801.64;;;3.16;100.00
62948;BME280;51940;52.126;-0.994;2023-03-03T04:43:04;101804.31;;;3.16;100.00
62948;BME280;51940;52.126;-0.994;2023-03-03T04:45:29;101807.48;;;3.16;100.00
62948;BME280;51940;52.126;-0.994;2023-03-03T04:47:54;101806.23;;;3.16;100.00
62948;BME280;51940;52.126;-0.994;2023-03-03T04:50:19;101804.83;;;3.16;100.00
62948;BME280;51940;52.126;-0.994;2023-03-03T04:52:45;101806.39;;;3.15;100.00
62948;BME280;51940;52.126;-0.994;2023-03-03T04:55:10;101805.33;;;3.15;100.00
62948;BME280;51940;52.126;-0.994;2023-03-03T04:57:35;101807.77;;;3.14;100.00
62948;BME280;51940;52.126;-0.994;2023-03-03T05:00:01;101809.16;;;3.13;100.00
62948;BME280;51940;52.126;-0.994;2023-03-03T05:02:26;101808.97;;;3.12;100.00
62948;BME280;51940;52.126;-0.994;2023-03-03T05:04:52;101808.77;;;3.12;100.00
62948;BME280;51940;52.126;-0.994;2023-03-03T05:07:17;101811.05;;;3.11;100.00
62948;BME280;51940;52.126;-0.994;2023-03-03T05:09:44;101812.80;;;3.10;100.00
62948;BME280;51940;52.126;-0.994;2023-03-03T05:12:09;101811.71;;;3.09;100.00
62948;BME280;51940;52.126;-0.994;2023-03-03T05:14:34;101810.61;;;3.08;100.00
62948;BME280;51940;52.126;-0.994;2023-03-03T05:16:59;101808.17;;;3.09;100.00
62948;BME280;51940;52.126;-0.994;2023-03-03T05:19:25;101813.10;;;3.08;100.00
62948;BME280;51940;52.126;-0.994;2023-03-03T05:21:50;101812.70;;;3.07;100.00
62948;BME280;51940;52.126;-0.994;2023-03-03T05:24:15;101810.38;;;3.07;100.00
62948;BME280;51940;52.126;-0.994;2023-03-03T05:26:41;101810.89;;;3.06;100.00
62948;BME280;51940;52.126;-0.994;2023-03-03T05:29:06;101813.17;;;3.06;100.00
62948;BME280;51940;52.126;-0.994;2023-03-03T05:31:32;101814.94;;;3.06;100.00
62948;BME280;51940;52.126;-0.994;2023-03-03T05:33:58;101817.23;;;3.06;100.00
62948;BME280;51940;52.126;-0.994;2023-03-03T05:36:23;101817.89;;;3.04;100.00
62948;BME280;51940;52.126;-0.994;2023-03-03T05:38:48;101815.59;;;3.04;100.00
62948;BME280;51940;52.126;-0.994;2023-03-03T05:41:14;101815.23;;;3.04;100.00
62948;BME280;51940;52.126;-0.994;2023-03-03T05:43:39;101814.70;;;3.03;100.00
62948;BME280;51940;52.126;-0.994;2023-03-03T05:46:04;101813.27;;;3.03;100.00
62948;BME280;51940;52.126;-0.994;2023-03-03T05:48:30;101817.30;;;3.02;100.00
62948;BME280;51940;52.126;-0.994;2023-03-03T05:50:58;101815.34;;;3.01;100.00
62948;BME280;51940;52.126;-0.994;2023-03-03T05:53:23;101816.92;;;3.01;100.00
62948;BME280;51940;52.126;-0.994;2023-03-03T05:55:49;101818.15;;;3.01;100.00
62948;BME280;51940;52.126;-0.994;2023-03-03T05:58:14;101820.06;;;3.00;100.00
62948;BME280;51940;52.126;-0.994;2023-03-03T06:00:39;101821.65;;;2.99;100.00
62948;BME280;51940;52.126;-0.994;2023-03-03T06:03:04;101817.19;;;2.98;100.00
62948;BME280;51940;52.126;-0.994;2023-03-03T06:05:30;101822.64;;;2.98;100.00
62948;BME280;51940;52.126;-0.994;2023-03-03T06:07:55;101823.49;;;2.97;100.00
62948;BME280;51940;52.126;-0.994;2023-03-03T06:10:20;101822.42;;;2.97;100.00
62948;BME280;51940;52.126;-0.994;2023-03-03T06:12:45;101820.98;;;2.96;100.00
62948;BME280;51940;52.126;-0.994;2023-03-03T06:15:11;101824.52;;;2.96;100.00
62948;BME280;51940;52.126;-0.994;2023-03-03T06:17:36;101820.63;;;2.96;100.00
62948;BME280;51940;52.126;-0.994;2023-03-03T06:20:01;101819.92;;;2.96;100.00
62948;BME280;51940;52.126;-0.994;2023-03-03T06:22:28;101822.90;;;2.95;100.00
62948;BME280;51940;52.126;-0.994;2023-03-03T06:24:53;101828.89;;;2.95;100.00
62948;BME280;51940;52.126;-0.994;2023-03-03T06:27:18;101831.88;;;2.95;100.00
62948;BME280;51940;52.126;-0.994;2023-03-03T06:29:43;101828.34;;;2.94;100.00
62948;BME280;51940;52.126;-0.994;2023-03-03T06:32:09;101830.10;;;2.94;100.00
62948;BME280;51940;52.126;-0.994;2023-03-03T06:34:35;101830.98;;;2.94;100.00
62948;BME280;51940;52.126;-0.994;2023-03-03T06:37:00;101829.94;;;2.94;100.00
62948;BME280;51940;52.126;-0.994;2023-03-03T06:39:30;101831.52;;;2.94;100.00
62948;BME280;51940;52.126;-0.994;2023-03-03T06:41:55;101832.75;;;2.94;100.00
62948;BME280;51940;52.126;-0.994;2023-03-03T06:44:20;101831.70;;;2.94;100.00
62948;BME280;51940;52.126;-0.994;2023-03-03T06:46:45;101834.68;;;2.94;100.00
62948;BME280;51940;52.126;-0.994;2023-03-03T06:49:11;101832.05;;;2.94;100.00
62948;BME280;51940;52.126;-0.994;2023-03-03T06:51:37;101833.30;;;2.94;100.00
62948;BME280;51940;52.126;-0.994;2023-03-03T06:54:11;101838.95;;;2.95;100.00
62948;BME280;51940;52.126;-0.994;2023-03-03T06:56:37;101837.18;;;2.95;100.00
62948;BME280;51940;52.126;-0.994;2023-03-03T06:59:05;101834.74;;;2.96;100.00
62948;BME280;51940;52.126;-0.994;2023-03-03T07:01:35;101838.44;;;2.96;100.00
62948;BME280;51940;52.126;-0.994;2023-03-03T07:04:04;101841.09;;;2.96;100.00
62948;BME280;51940;52.126;-0.994;2023-03-03T07:06:29;101841.44;;;2.96;100.00
62948;BME280;51940;52.126;-0.994;2023-03-03T07:08:56;101838.27;;;2.96;100.00
62948;BME280;51940;52.126;-0.994;2023-03-03T07:11:22;101846.73;;;2.97;100.00
62948;BME280;51940;52.126;-0.994;2023-03-03T07:13:54;101849.41;;;2.98;100.00
62948;BME280;51940;52.126;-0.994;2023-03-03T07:16:24;101855.24;;;2.99;100.00
62948;BME280;51940;52.126;-0.994;2023-03-03T07:18:54;101856.55;;;3.00;100.00
62948;BME280;51940;52.126;-0.994;2023-03-03T07:21:22;101862.21;;;3.00;100.00
62948;BME280;51940;52.126;-0.994;2023-03-03T07:23:48;101863.11;;;3.01;100.00
62948;BME280;51940;52.126;-0.994;2023-03-03T07:26:15;101869.98;;;3.01;100.00
62948;BME280;51940;52.126;-0.994;2023-03-03T07:28:41;101875.58;;;3.00;100.00
62948;BME280;51940;52.126;-0.994;2023-03-03T07:31:27;101878.42;;;2.95;100.00
62948;BME280;51940;52.126;-0.994;2023-03-03T07:33:54;101879.83;;;2.90;100.00
62948;BME280;51940;52.126;-0.994;2023-03-03T07:38:50;101883.79;;;2.81;100.00
62948;BME280;51940;52.126;-0.994;2023-03-03T07:41:17;101884.09;;;2.79;100.00
62948;BME280;51940;52.126;-0.994;2023-03-03T07:46:26;101886.75;;;2.79;100.00
62948;BME280;51940;52.126;-0.994;2023-03-03T07:48:52;101887.58;;;2.78;100.00
62948;BME280;51940;52.126;-0.994;2023-03-03T07:51:23;101892.31;;;2.77;100.00
62948;BME280;51940;52.126;-0.994;2023-03-03T07:53:51;101895.98;;;2.76;100.00
62948;BME280;51940;52.126;-0.994;2023-03-03T07:58:45;101902.25;;;2.80;100.00
62948;BME280;51940;52.126;-0.994;2023-03-03T08:01:27;101903.11;;;2.84;100.00
62948;BME280;51940;52.126;-0.994;2023-03-03T08:03:53;101905.66;;;2.87;100.00
62948;BME280;51940;52.126;-0.994;2023-03-03T08:08:47;101909.89;;;2.93;100.00
62948;BME280;51940;52.126;-0.994;2023-03-03T08:11:13;101910.67;;;2.95;100.00
62948;BME280;51940;52.126;-0.994;2023-03-03T08:13:39;101912.27;;;3.01;100.00
62948;BME280;51940;52.126;-0.994;2023-03-03T08:18:47;101913.92;;;3.15;100.00
62948;BME280;51940;52.126;-0.994;2023-03-03T08:21:16;101915.03;;;3.22;100.00
62948;BME280;51940;52.126;-0.994;2023-03-03T08:23:43;101914.58;;;3.30;100.00
62948;BME280;51940;52.126;-0.994;2023-03-03T08:26:09;101914.70;;;3.41;100.00
62948;BME280;51940;52.126;-0.994;2023-03-03T08:28:34;101918.42;;;3.47;100.00
62948;BME280;51940;52.126;-0.994;2023-03-03T08:30:59;101917.33;;;3.52;100.00
62948;BME280;51940;52.126;-0.994;2023-03-03T08:33:25;101920.80;;;3.56;100.00
62948;BME280;51940;52.126;-0.994;2023-03-03T08:35:50;101919.65;;;3.59;100.00
62948;BME280;51940;52.126;-0.994;2023-03-03T08:38:17;101925.25;;;3.64;100.00
62948;BME280;51940;52.126;-0.994;2023-03-03T08:40:43;101923.12;;;3.69;100.00
62948;BME280;51940;52.126;-0.994;2023-03-03T08:43:08;101925.05;;;3.75;100.00
62948;BME280;51940;52.126;-0.994;2023-03-03T08:45:34;101929.82;;;3.82;100.00
62948;BME280;51940;52.126;-0.994;2023-03-03T08:48:00;101933.50;;;3.86;100.00
62948;BME280;51940;52.126;-0.994;2023-03-03T08:50:26;101930.17;;;3.88;100.00
62948;BME280;51940;52.126;-0.994;2023-03-03T08:52:52;101929.29;;;3.87;100.00
62948;BME280;51940;52.126;-0.994;2023-03-03T08:55:20;101928.59;;;3.88;100.00
62948;BME280;51940;52.126;-0.994;2023-03-03T08:57:45;101930.31;;;3.93;100.00
62948;BME280;51940;52.126;-0.994;2023-03-03T09:00:12;101930.05;;;3.95;100.00
62948;BME280;51940;52.126;-0.994;2023-03-03T09:02:38;101933.88;;;4.00;100.00
62948;BME280;51940;52.126;-0.994;2023-03-03T09:05:04;101934.16;;;4.11;100.00
62948;BME280;51940;52.126;-0.994;2023-03-03T09:07:29;101932.52;;;4.22;100.00
62948;BME280;51940;52.126;-0.994;2023-03-03T09:09:55;101929.98;;;4.33;100.00
62948;BME280;51940;52.126;-0.994;2023-03-03T09:12:39;101927.79;;;4.43;100.00
62948;BME280;51940;52.126;-0.994;2023-03-03T09:15:13;101927.47;;;4.59;100.00
62948;BME280;51940;52.126;-0.994;2023-03-03T09:17:39;101931.66;;;4.71;100.00
62948;BME280;51940;52.126;-0.994;2023-03-03T09:20:21;101928.30;;;4.86;100.00
62948;BME280;51940;52.126;-0.994;2023-03-03T09:22:50;101928.09;;;4.99;100.00
62948;BME280;51940;52.126;-0.994;2023-03-03T09:25:24;101932.59;;;5.03;100.00
62948;BME280;51940;52.126;-0.994;2023-03-03T09:27:52;101926.42;;;4.96;100.00
62948;BME280;51940;52.126;-0.994;2023-03-03T09:32:46;101932.08;;;4.96;100.00
62948;BME280;51940;52.126;-0.994;2023-03-03T09:37:55;101932.56;;;4.80;100.00
62948;BME280;51940;52.126;-0.994;2023-03-03T09:43:57;101937.54;;;4.88;100.00
62948;BME280;51940;52.126;-0.994;2023-03-03T09:48:43;101936.59;;;5.00;100.00
62948;BME280;51940;52.126;-0.994;2023-03-03T09:56:43;101943.64;;;5.29;100.00
62948;BME280;51940;52.126;-0.994;2023-03-03T10:07:08;101942.38;;;5.29;100.00
62948;BME280;51940;52.126;-0.994;2023-03-03T10:09:53;101943.58;;;5.20;100.00
62948;BME280;51940;52.126;-0.994;2023-03-03T10:17:36;101953.96;;;5.17;100.00
62948;BME280;51940;52.126;-0.994;2023-03-03T10:25:12;101950.75;;;5.31;100.00
62948;BME280;51940;52.126;-0.994;2023-03-03T10:27:54;101948.83;;;5.40;100.00
62948;BME280;51940;52.126;-0.994;2023-03-03T10:33:00;101953.38;;;5.46;100.00
62948;BME280;51940;52.126;-0.994;2023-03-03T10:40:33;101949.94;;;5.67;100.00
62948;BME280;51940;52.126;-0.994;2023-03-03T10:55:42;101951.77;;;5.61;100.00
62948;BME280;51940;52.126;-0.994;2023-03-03T11:05:55;101956.08;;;5.32;100.00
62948;BME280;51940;52.126;-0.994;2023-03-03T11:08:26;101963.36;;;5.34;100.00
62948;BME280;51940;52.126;-0.994;2023-03-03T11:11:04;101964.99;;;5.36;100.00
62948;BME280;51940;52.126;-0.994;2023-03-03T11:16:16;101968.95;;;5.31;100.00
62948;BME280;51940;52.126;-0.994;2023-03-03T11:18:49;101969.10;;;5.29;100.00
62948;BME280;51940;52.126;-0.994;2023-03-03T11:21:22;101971.56;;;5.29;100.00
62948;BME280;51940;52.126;-0.994;2023-03-03T11:29:19;101972.17;;;5.39;100.00
62948;BME280;51940;52.126;-0.994;2023-03-03T11:37:07;101965.17;;;5.59;100.00
62948;BME280;51940;52.126;-0.994;2023-03-03T11:39:33;101970.33;;;5.61;100.00
62948;BME280;51940;52.126;-0.994;2023-03-03T11:44:40;101968.29;;;5.48;100.00
62948;BME280;51940;52.126;-0.994;2023-03-03T11:47:21;101969.46;;;5.46;100.00
62948;BME280;51940;52.126;-0.994;2023-03-03T11:55:03;101976.96;;;5.48;100.00
62948;BME280;51940;52.126;-0.994;2023-03-03T11:57:34;101971.36;;;5.51;100.00
62948;BME280;51940;52.126;-0.994;2023-03-03T12:10:46;101974.20;;;5.77;100.00
62948;BME280;51940;52.126;-0.994;2023-03-03T12:13:19;101977.36;;;5.75;100.00
62948;BME280;51940;52.126;-0.994;2023-03-03T12:15:55;101974.35;;;5.75;100.00
62948;BME280;51940;52.126;-0.994;2023-03-03T12:18:26;101976.39;;;5.71;100.00
62948;BME280;51940;52.126;-0.994;2023-03-03T12:26:06;101963.61;;;5.70;100.00
62948;BME280;51940;52.126;-0.994;2023-03-03T12:28:40;101965.06;;;5.72;100.00
62948;BME280;51940;52.126;-0.994;2023-03-03T12:33:52;101961.80;;;5.67;100.00
62948;BME280;51940;52.126;-0.994;2023-03-03T12:41:54;101959.50;;;5.59;100.00
62948;BME280;51940;52.126;-0.994;2023-03-03T12:54:59;101947.91;;;5.63;100.00
62948;BME280;51940;52.126;-0.994;2023-03-03T12:57:31;101944.80;;;5.67;100.00
62948;BME280;51940;52.126;-0.994;2023-03-03T13:10:06;101942.27;;;5.64;100.00
62948;BME280;51940;52.126;-0.994;2023-03-03T13:12:44;101937.61;;;5.62;100.00
62948;BME280;51940;52.126;-0.994;2023-03-03T13:15:24;101937.65;;;5.63;100.00
62948;BME280;51940;52.126;-0.994;2023-03-03T13:18:15;101935.12;;;5.61;100.00
62948;BME280;51940;52.126;-0.994;2023-03-03T13:30:39;101936.82;;;5.49;100.00
62948;BME280;51940;52.126;-0.994;2023-03-03T13:35:53;101931.83;;;5.39;100.00
62948;BME280;51940;52.126;-0.994;2023-03-03T13:38:20;101925.78;;;5.38;100.00
62948;BME280;51940;52.126;-0.994;2023-03-03T13:40:51;101926.63;;;5.37;100.00
62948;BME280;51940;52.126;-0.994;2023-03-03T13:43:23;101922.23;;;5.38;100.00
62948;BME280;51940;52.126;-0.994;2023-03-03T13:50:58;101911.38;;;5.60;100.00
62948;BME280;51940;52.126;-0.994;2023-03-03T13:58:50;101911.94;;;5.61;100.00
62948;BME280;51940;52.126;-0.994;2023-03-03T14:03:58;101909.12;;;5.54;100.00
62948;BME280;51940;52.126;-0.994;2023-03-03T14:06:26;101910.81;;;5.50;100.00
62948;BME280;51940;52.126;-0.994;2023-03-03T14:19:05;101918.23;;;5.33;100.00
62948;BME280;51940;52.126;-0.994;2023-03-03T14:27:20;101914.11;;;5.30;100.00
62948;BME280;51940;52.126;-0.994;2023-03-03T14:29:48;101914.11;;;5.39;100.00
62948;BME280;51940;52.126;-0.994;2023-03-03T14:32:37;101911.79;;;5.46;100.00
62948;BME280;51940;52.126;-0.994;2023-03-03T14:35:12;101909.61;;;5.52;100.00
62948;BME280;51940;52.126;-0.994;2023-03-03T14:37:44;101905.13;;;5.57;100.00
62948;BME280;51940;52.126;-0.994;2023-03-03T14:40:21;101905.83;;;5.57;100.00
62948;BME280;51940;52.126;-0.994;2023-03-03T14:42:48;101909.42;;;5.52;100.00
62948;BME280;51940;52.126;-0.994;2023-03-03T14:47:56;101904.61;;;5.40;100.00
62948;BME280;51940;52.126;-0.994;2023-03-03T14:50:55;101902.42;;;5.38;100.00
62948;BME280;51940;52.126;-0.994;2023-03-03T14:53:20;101910.80;;;5.33;100.00
62948;BME280;51940;52.126;-0.994;2023-03-03T14:55:51;101909.23;;;5.26;100.00
62948;BME280;51940;52.126;-0.994;2023-03-03T14:58:24;101910.07;;;5.23;100.00
62948;BME280;51940;52.126;-0.994;2023-03-03T15:00:55;101910.64;;;5.25;100.00
62948;BME280;51940;52.126;-0.994;2023-03-03T15:03:33;101910.88;;;5.29;100.00
62948;BME280;51940;52.126;-0.994;2023-03-03T15:06:06;101904.77;;;5.31;100.00
62948;BME280;51940;52.126;-0.994;2023-03-03T15:08:34;101895.69;;;5.37;100.00
62948;BME280;51940;52.126;-0.994;2023-03-03T15:14:14;101895.56;;;5.48;100.00
62948;BME280;51940;52.126;-0.994;2023-03-03T15:16:40;101893.55;;;5.46;100.00
62948;BME280;51940;52.126;-0.994;2023-03-03T15:19:29;101890.70;;;5.45;100.00
62948;BME280;51940;52.126;-0.994;2023-03-03T15:24:39;101885.24;;;5.38;100.00
62948;BME280;51940;52.126;-0.994;2023-03-03T15:27:10;101884.85;;;5.36;100.00
62948;BME280;51940;52.126;-0.994;2023-03-03T15:29:53;101883.75;;;5.33;100.00
62948;BME280;51940;52.126;-0.994;2023-03-03T15:32:33;101884.36;;;5.29;100.00
62948;BME280;51940;52.126;-0.994;2023-03-03T15:52:51;101864.88;;;5.20;100.00
62948;BME280;51940;52.126;-0.994;2023-03-03T15:55:45;101863.70;;;5.22;100.00
62948;BME280;51940;52.126;-0.994;2023-03-03T15:58:26;101860.27;;;5.27;100.00
62948;BME280;51940;52.126;-0.994;2023-03-03T16:03:35;101856.64;;;5.39;100.00
62948;BME280;51940;52.126;-0.994;2023-03-03T16:06:10;101853.50;;;5.42;100.00
62948;BME280;51940;52.126;-0.994;2023-03-03T16:11:22;101854.69;;;5.48;100.00
62948;BME280;51940;52.126;-0.994;2023-03-03T16:13:57;101853.64;;;5.49;100.00
62948;BME280;51940;52.126;-0.994;2023-03-03T16:16:29;101856.96;;;5.47;100.00
62948;BME280;51940;52.126;-0.994;2023-03-03T16:28:09;101852.48;;;5.45;100.00
62948;BME280;51940;52.126;-0.994;2023-03-03T16:32:50;101854.95;;;5.45;100.00
62948;BME280;51940;52.126;-0.994;2023-03-03T16:35:25;101853.52;;;5.43;100.00
62948;BME280;51940;52.126;-0.994;2023-03-03T16:40:22;101855.60;;;5.41;100.00
62948;BME280;51940;52.126;-0.994;2023-03-03T16:43:15;101857.36;;;5.40;100.00
62948;BME280;51940;52.126;-0.994;2023-03-03T16:45:37;101854.96;;;5.37;100.00
62948;BME280;51940;52.126;-0.994;2023-03-03T16:53:17;101860.73;;;5.32;100.00